sensor_id;sensor_type;location;lat;lon;timestamp;pressure;altitude;pressure_sealevel;temperature;humidity
19594;BME280;9944;48.240;16.478;2023-02-01T00:00:17;99824.00;;;3.26;68.34
19594;BME280;9944;48.240;16.478;2023-02-01T00:04:21;99815.25;;;3.24;68.39
19594;BME280;9944;48.240;16.478;2023-02-01T00:08:24;99811.69;;;3.22;68.39
19594;BME280;9944;48.240;16.478;2023-02-01T00:12:27;99812.56;;;3.21;68.73
19594;BME280;9944;48.240;16.478;2023-02-01T00:16:32;99789.91;;;3.20;68.94
19594;BME280;9944;48.240;16.478;2023-02-01T00:20:35;99809.00;;;3.18;68.99
19594;BME280;9944;48.240;16.478;2023-02-01T00:24:38;99798.59;;;3.19;69.19
19594;BME280;9944;48.240;16.478;2023-02-01T00:28:41;99806.34;;;3.16;69.24
19594;BME280;9944;48.240;16.478;2023-02-01T00:32:46;99794.22;;;3.18;69.15
19594;BME280;9944;48.240;16.478;2023-02-01T00:36:49;99802.09;;;3.20;69.18
19594;BME280;9944;48.240;16.478;2023-02-01T00:40:52;99807.31;;;3.20;69.12
19594;BME280;9944;48.240;16.478;2023-02-01T00:44:55;99829.03;;;3.20;68.81
19594;BME280;9944;48.240;16.478;2023-02-01T00:49:00;99814.34;;;3.24;68.70
19594;BME280;9944;48.240;16.478;2023-02-01T00:53:03;99813.56;;;3.26;68.72
19594;BME280;9944;48.240;16.478;2023-02-01T00:57:06;99831.00;;;3.29;68.73
19594;BME280;9944;48.240;16.478;2023-02-01T01:01:12;99850.19;;;3.31;68.65
19594;BME280;9944;48.240;16.478;2023-02-01T01:05:17;99853.69;;;3.32;68.68
19594;BME280;9944;48.240;16.478;2023-02-01T01:09:20;99867.66;;;3.34;68.61
19594;BME280;9944;48.240;16.478;2023-02-01T01:13:24;99858.91;;;3.32;68.77
19594;BME280;9944;48.240;16.478;2023-02-01T01:17:27;99859.75;;;3.31;69.03
19594;BME280;9944;48.240;16.478;2023-02-01T01:21:31;99851.09;;;3.32;69.07
19594;BME280;9944;48.240;16.478;2023-02-01T01:25:37;99856.34;;;3.33;68.71
19594;BME280;9944;48.240;16.478;2023-02-01T01:29:40;99863.28;;;3.33;68.98
19594;BME280;9944;48.240;16.478;2023-02-01T01:33:48;99864.13;;;3.32;68.94
19594;BME280;9944;48.240;16.478;2023-02-01T01:37:52;99857.19;;;3.32;68.86
19594;BME280;9944;48.240;16.478;2023-02-01T01:41:56;99854.56;;;3.32;68.88
19594;BME280;9944;48.240;16.478;2023-02-01T01:46:01;99841.56;;;3.34;68.73
19594;BME280;9944;48.240;16.478;2023-02-01T01:50:06;99855.50;;;3.34;68.70
19594;BME280;9944;48.240;16.478;2023-02-01T01:54:16;99846.88;;;3.37;68.75
19594;BME280;9944;48.240;16.478;2023-02-01T01:58:24;99853.06;;;3.40;68.58
19594;BME280;9944;48.240;16.478;2023-02-01T02:02:28;99842.63;;;3.40;68.63
19594;BME280;9944;48.240;16.478;2023-02-01T02:06:39;99836.59;;;3.43;68.59
19594;BME280;9944;48.240;16.478;2023-02-01T02:10:44;99841.00;;;3.45;68.54
19594;BME280;9944;48.240;16.478;2023-02-01T02:15:04;99827.06;;;3.43;68.59
19594;BME280;9944;48.240;16.478;2023-02-01T02:19:27;99834.88;;;3.43;68.60
19594;BME280;9944;48.240;16.478;2023-02-01T02:28:36;99829.66;;;3.45;68.91
19594;BME280;9944;48.240;16.478;2023-02-01T02:37:34;99856.81;;;3.52;69.09
19594;BME280;9944;48.240;16.478;2023-02-01T02:41:48;99873.50;;;3.58;68.99
19594;BME280;9944;48.240;16.478;2023-02-01T02:46:21;99876.16;;;3.60;68.84
19594;BME280;9944;48.240;16.478;2023-02-01T02:50:50;99882.31;;;3.62;68.80
19594;BME280;9944;48.240;16.478;2023-02-01T02:55:15;99877.13;;;3.63;68.81
19594;BME280;9944;48.240;16.478;2023-02-01T02:59:21;99883.25;;;3.65;68.82
19594;BME280;9944;48.240;16.478;2023-02-01T03:03:43;99867.69;;;3.69;68.58
19594;BME280;9944;48.240;16.478;2023-02-01T03:08:11;99863.28;;;3.68;68.58
19594;BME280;9944;48.240;16.478;2023-02-01T03:12:16;99858.03;;;3.64;68.74
19594;BME280;9944;48.240;16.478;2023-02-01T03:16:41;99865.00;;;3.65;68.24
19594;BME280;9944;48.240;16.478;2023-02-01T03:20:50;99872.78;;;3.62;68.60
19594;BME280;9944;48.240;16.478;2023-02-01T03:24:57;99864.13;;;3.65;68.35
19594;BME280;9944;48.240;16.478;2023-02-01T03:29:09;99866.66;;;3.62;68.20
19594;BME280;9944;48.240;16.478;2023-02-01T03:33:19;99884.03;;;3.61;68.45
19594;BME280;9944;48.240;16.478;2023-02-01T03:37:27;99867.50;;;3.61;68.19
19594;BME280;9944;48.240;16.478;2023-02-01T03:41:35;99870.88;;;3.57;68.61
19594;BME280;9944;48.240;16.478;2023-02-01T03:45:44;99885.66;;;3.56;68.38
19594;BME280;9944;48.240;16.478;2023-02-01T03:49:53;99877.78;;;3.55;68.43
19594;BME280;9944;48.240;16.478;2023-02-01T03:54:01;99880.38;;;3.55;68.56
19594;BME280;9944;48.240;16.478;2023-02-01T03:58:07;99880.44;;;3.56;68.42
19594;BME280;9944;48.240;16.478;2023-02-01T04:02:14;99876.94;;;3.56;68.78
19594;BME280;9944;48.240;16.478;2023-02-01T04:06:18;99887.44;;;3.57;68.56
19594;BME280;9944;48.240;16.478;2023-02-01T04:10:22;99890.00;;;3.56;68.46
19594;BME280;9944;48.240;16.478;2023-02-01T04:14:26;99894.41;;;3.58;68.53
19594;BME280;9944;48.240;16.478;2023-02-01T04:18:30;99896.91;;;3.55;68.60
19594;BME280;9944;48.240;16.478;2023-02-01T04:22:33;99890.81;;;3.55;68.79
19594;BME280;9944;48.240;16.478;2023-02-01T04:26:36;99891.75;;;3.57;68.89
19594;BME280;9944;48.240;16.478;2023-02-01T04:30:39;99896.91;;;3.55;68.76
19594;BME280;9944;48.240;16.478;2023-02-01T04:34:44;99870.81;;;3.55;69.06
19594;BME280;9944;48.240;16.478;2023-02-01T04:38:48;99882.22;;;3.57;69.01
19594;BME280;9944;48.240;16.478;2023-02-01T04:42:51;99883.91;;;3.57;69.25
19594;BME280;9944;48.240;16.478;2023-02-01T04:46:54;99868.28;;;3.58;69.14
19594;BME280;9944;48.240;16.478;2023-02-01T04:50:58;99860.47;;;3.58;69.32
19594;BME280;9944;48.240;16.478;2023-02-01T04:55:02;99850.13;;;3.61;69.42
19594;BME280;9944;48.240;16.478;2023-02-01T04:59:06;99858.03;;;3.64;69.65
19594;BME280;9944;48.240;16.478;2023-02-01T05:03:09;99851.88;;;3.62;69.96
19594;BME280;9944;48.240;16.478;2023-02-01T05:07:14;99858.81;;;3.62;70.00
19594;BME280;9944;48.240;16.478;2023-02-01T05:11:17;99844.13;;;3.65;70.05
19594;BME280;9944;48.240;16.478;2023-02-01T05:15:34;99857.22;;;3.67;70.19
19594;BME280;9944;48.240;16.478;2023-02-01T05:19:37;99852.84;;;3.68;70.54
19594;BME280;9944;48.240;16.478;2023-02-01T05:23:41;99859.06;;;3.71;70.30
19594;BME280;9944;48.240;16.478;2023-02-01T05:28:02;99849.50;;;3.72;70.88
19594;BME280;9944;48.240;16.478;2023-02-01T05:32:05;99838.31;;;3.77;70.33
19594;BME280;9944;48.240;16.478;2023-02-01T05:36:22;99855.72;;;3.77;70.52
19594;BME280;9944;48.240;16.478;2023-02-01T05:40:27;99833.97;;;3.78;70.66
19594;BME280;9944;48.240;16.478;2023-02-01T05:44:30;99841.06;;;3.82;70.73
19594;BME280;9944;48.240;16.478;2023-02-01T05:48:33;99839.28;;;3.81;70.82
19594;BME280;9944;48.240;16.478;2023-02-01T05:52:36;99838.41;;;3.80;70.75
19594;BME280;9944;48.240;16.478;2023-02-01T05:56:40;99830.59;;;3.82;70.91
19594;BME280;9944;48.240;16.478;2023-02-01T06:00:43;99839.34;;;3.84;71.03
19594;BME280;9944;48.240;16.478;2023-02-01T06:04:46;99836.75;;;3.84;70.91
19594;BME280;9944;48.240;16.478;2023-02-01T06:08:50;99840.22;;;3.84;70.81
19594;BME280;9944;48.240;16.478;2023-02-01T06:12:54;99841.97;;;3.84;70.81
19594;BME280;9944;48.240;16.478;2023-02-01T06:16:57;99843.69;;;3.83;70.88
19594;BME280;9944;48.240;16.478;2023-02-01T06:21:00;99842.03;;;3.87;70.85
19594;BME280;9944;48.240;16.478;2023-02-01T06:25:05;99853.47;;;3.92;70.72
19594;BME280;9944;48.240;16.478;2023-02-01T06:29:11;99844.78;;;3.93;70.68
19594;BME280;9944;48.240;16.478;2023-02-01T06:33:14;99854.50;;;3.97;70.72
19594;BME280;9944;48.240;16.478;2023-02-01T06:37:17;99855.47;;;4.01;70.53
19594;BME280;9944;48.240;16.478;2023-02-01T06:41:20;99874.69;;;4.05;70.45
19594;BME280;9944;48.240;16.478;2023-02-01T06:45:25;99883.53;;;4.10;70.43
19594;BME280;9944;48.240;16.478;2023-02-01T06:49:28;99872.25;;;4.12;70.61
19594;BME280;9944;48.240;16.478;2023-02-01T06:53:31;99883.63;;;4.13;70.68
19594;BME280;9944;48.240;16.478;2023-02-01T06:57:34;99886.22;;;4.14;70.99
19594;BME280;9944;48.240;16.478;2023-02-01T07:01:39;99872.28;;;4.14;70.90
19594;BME280;9944;48.240;16.478;2023-02-01T07:05:42;99859.31;;;4.17;70.81
19594;BME280;9944;48.240;16.478;2023-02-01T07:09:45;99882.81;;;4.17;71.04
19594;BME280;9944;48.240;16.478;2023-02-01T07:13:49;99878.44;;;4.16;71.09
19594;BME280;9944;48.240;16.478;2023-02-01T07:17:55;99861.88;;;4.15;71.18
19594;BME280;9944;48.240;16.478;2023-02-01T07:21:58;99866.28;;;4.18;71.06
19594;BME280;9944;48.240;16.478;2023-02-01T07:26:03;99862.84;;;4.19;70.85
19594;BME280;9944;48.240;16.478;2023-02-01T07:30:08;99862.91;;;4.22;70.78
19594;BME280;9944;48.240;16.478;2023-02-01T07:34:13;99867.34;;;4.26;70.48
19594;BME280;9944;48.240;16.478;2023-02-01T07:38:16;99884.88;;;4.30;70.47
19594;BME280;9944;48.240;16.478;2023-02-01T07:42:21;99883.16;;;4.31;70.44
19594;BME280;9944;48.240;16.478;2023-02-01T07:46:24;99871.81;;;4.30;70.40
19594;BME280;9944;48.240;16.478;2023-02-01T07:50:28;99870.13;;;4.32;70.21
19594;BME280;9944;48.240;16.478;2023-02-01T07:54:32;99864.06;;;4.35;70.18
19594;BME280;9944;48.240;16.478;2023-02-01T07:58:35;99878.06;;;4.38;69.62
19594;BME280;9944;48.240;16.478;2023-02-01T08:02:38;99875.53;;;4.41;69.76
19594;BME280;9944;48.240;16.478;2023-02-01T08:06:42;99873.91;;;4.47;69.50
19594;BME280;9944;48.240;16.478;2023-02-01T08:10:45;99873.94;;;4.48;69.76
19594;BME280;9944;48.240;16.478;2023-02-01T08:14:48;99853.16;;;4.53;69.52
19594;BME280;9944;48.240;16.478;2023-02-01T08:18:52;99851.50;;;4.58;69.27
19594;BME280;9944;48.240;16.478;2023-02-01T08:22:57;99834.13;;;4.60;69.24
19594;BME280;9944;48.240;16.478;2023-02-01T08:27:00;99838.47;;;4.61;69.24
19594;BME280;9944;48.240;16.478;2023-02-01T08:31:05;99822.03;;;4.65;69.29
19594;BME280;9944;48.240;16.478;2023-02-01T08:35:09;99826.44;;;4.68;69.61
19594;BME280;9944;48.240;16.478;2023-02-01T08:39:13;99833.47;;;4.70;69.48
19594;BME280;9944;48.240;16.478;2023-02-01T08:43:16;99821.38;;;4.75;69.35
19594;BME280;9944;48.240;16.478;2023-02-01T08:47:21;99815.28;;;4.76;69.07
19594;BME280;9944;48.240;16.478;2023-02-01T08:51:24;99813.56;;;4.78;68.72
19594;BME280;9944;48.240;16.478;2023-02-01T08:55:29;99811.00;;;4.82;68.43
19594;BME280;9944;48.240;16.478;2023-02-01T08:59:32;99808.44;;;4.83;68.60
19594;BME280;9944;48.240;16.478;2023-02-01T09:03:35;99813.69;;;4.85;68.36
19594;BME280;9944;48.240;16.478;2023-02-01T09:07:39;99825.09;;;4.88;68.07
19594;BME280;9944;48.240;16.478;2023-02-01T09:11:43;99831.19;;;4.89;67.53
19594;BME280;9944;48.240;16.478;2023-02-01T09:15:46;99831.25;;;4.90;67.87
19594;BME280;9944;48.240;16.478;2023-02-01T09:19:49;99852.19;;;4.92;67.90
19594;BME280;9944;48.240;16.478;2023-02-01T09:23:52;99853.91;;;4.90;68.53
19594;BME280;9944;48.240;16.478;2023-02-01T09:27:57;99838.97;;;4.84;69.05
19594;BME280;9944;48.240;16.478;2023-02-01T09:32:00;99837.16;;;4.82;69.81
19594;BME280;9944;48.240;16.478;2023-02-01T09:36:05;99830.19;;;4.81;70.27
19594;BME280;9944;48.240;16.478;2023-02-01T09:40:12;99822.28;;;4.77;70.07
19594;BME280;9944;48.240;16.478;2023-02-01T09:44:39;99816.13;;;4.75;70.19
19594;BME280;9944;48.240;16.478;2023-02-01T09:48:46;99811.75;;;4.74;70.56
19594;BME280;9944;48.240;16.478;2023-02-01T09:52:55;99813.53;;;4.75;70.88
19594;BME280;9944;48.240;16.478;2023-02-01T09:57:05;99802.13;;;4.72;71.01
19594;BME280;9944;48.240;16.478;2023-02-01T10:01:15;99795.97;;;4.70;71.38
19594;BME280;9944;48.240;16.478;2023-02-01T10:05:30;99788.06;;;4.67;71.46
19594;BME280;9944;48.240;16.478;2023-02-01T10:09:50;99779.38;;;4.68;71.69
19594;BME280;9944;48.240;16.478;2023-02-01T10:14:00;99762.00;;;4.71;71.29
19594;BME280;9944;48.240;16.478;2023-02-01T10:18:27;99743.81;;;4.77;71.31
19594;BME280;9944;48.240;16.478;2023-02-01T10:22:40;99763.16;;;4.86;71.32
19594;BME280;9944;48.240;16.478;2023-02-01T10:27:12;99766.03;;;5.00;70.97
19594;BME280;9944;48.240;16.478;2023-02-01T10:31:16;99733.94;;;5.08;70.08
19594;BME280;9944;48.240;16.478;2023-02-01T10:35:26;99743.53;;;5.11;70.01
19594;BME280;9944;48.240;16.478;2023-02-01T10:39:32;99716.59;;;5.16;69.33
19594;BME280;9944;48.240;16.478;2023-02-01T10:43:35;99714.88;;;5.19;69.54
19594;BME280;9944;48.240;16.478;2023-02-01T10:47:38;99717.53;;;5.20;69.46
19594;BME280;9944;48.240;16.478;2023-02-01T10:51:48;99728.91;;;5.21;69.25
19594;BME280;9944;48.240;16.478;2023-02-01T10:55:53;99721.00;;;5.18;69.43
19594;BME280;9944;48.240;16.478;2023-02-01T10:59:56;99745.41;;;5.18;69.07
19594;BME280;9944;48.240;16.478;2023-02-01T11:04:00;99735.78;;;5.15;69.25
19594;BME280;9944;48.240;16.478;2023-02-01T11:08:05;99725.25;;;5.12;70.16
19594;BME280;9944;48.240;16.478;2023-02-01T11:12:24;99735.00;;;5.21;70.79
19594;BME280;9944;48.240;16.478;2023-02-01T11:16:32;99748.91;;;5.19;70.44
19594;BME280;9944;48.240;16.478;2023-02-01T11:20:39;99726.97;;;5.10;70.26
19594;BME280;9944;48.240;16.478;2023-02-01T11:24:46;99720.78;;;5.05;71.32
19594;BME280;9944;48.240;16.478;2023-02-01T11:28:53;99750.44;;;5.06;71.49
19594;BME280;9944;48.240;16.478;2023-02-01T11:32:57;99735.50;;;5.00;71.64
19594;BME280;9944;48.240;16.478;2023-02-01T11:37:02;99742.34;;;4.92;72.15
19594;BME280;9944;48.240;16.478;2023-02-01T11:41:17;99756.09;;;4.82;72.16
19594;BME280;9944;48.240;16.478;2023-02-01T11:45:29;99754.09;;;4.68;73.33
19594;BME280;9944;48.240;16.478;2023-02-01T11:49:32;99760.03;;;4.59;73.43
19594;BME280;9944;48.240;16.478;2023-02-01T11:53:46;99759.03;;;4.54;73.99
19594;BME280;9944;48.240;16.478;2023-02-01T11:58:11;99755.38;;;4.45;74.32
19594;BME280;9944;48.240;16.478;2023-02-01T12:02:33;99763.22;;;4.45;74.84
19594;BME280;9944;48.240;16.478;2023-02-01T12:06:49;99758.75;;;4.40;75.01
19594;BME280;9944;48.240;16.478;2023-02-01T12:11:12;99758.66;;;4.34;75.17
19594;BME280;9944;48.240;16.478;2023-02-01T12:15:30;99756.78;;;4.27;75.55
19594;BME280;9944;48.240;16.478;2023-02-01T12:19:50;99756.78;;;4.27;75.71
19594;BME280;9944;48.240;16.478;2023-02-01T12:24:08;99746.31;;;4.27;76.20
19594;BME280;9944;48.240;16.478;2023-02-01T12:28:35;99742.03;;;4.31;76.53
19594;BME280;9944;48.240;16.478;2023-02-01T12:32:55;99737.94;;;4.44;77.48
19594;BME280;9944;48.240;16.478;2023-02-01T12:37:10;99731.28;;;4.61;77.86
19594;BME280;9944;48.240;16.478;2023-02-01T12:41:36;99724.63;;;4.75;77.78
19594;BME280;9944;48.240;16.478;2023-02-01T12:45:45;99705.47;;;4.78;77.54
19594;BME280;9944;48.240;16.478;2023-02-01T12:49:56;99707.28;;;4.81;77.72
19594;BME280;9944;48.240;16.478;2023-02-01T12:54:09;99702.94;;;4.83;76.62
19594;BME280;9944;48.240;16.478;2023-02-01T12:58:17;99686.44;;;4.87;75.89
19594;BME280;9944;48.240;16.478;2023-02-01T13:02:28;99692.66;;;4.93;75.66
19594;BME280;9944;48.240;16.478;2023-02-01T13:06:39;99687.72;;;5.10;75.95
19594;BME280;9944;48.240;16.478;2023-02-01T13:10:47;99693.19;;;5.24;74.94
19594;BME280;9944;48.240;16.478;2023-02-01T13:14:54;99676.66;;;5.27;74.74
19594;BME280;9944;48.240;16.478;2023-02-01T13:19:05;99671.53;;;5.33;74.08
19594;BME280;9944;48.240;16.478;2023-02-01T13:23:21;99656.69;;;5.33;73.99
19594;BME280;9944;48.240;16.478;2023-02-01T13:27:28;99655.91;;;5.41;73.83
19594;BME280;9944;48.240;16.478;2023-02-01T13:31:51;99638.56;;;5.47;73.62
19594;BME280;9944;48.240;16.478;2023-02-01T13:36:17;99628.09;;;5.47;73.21
19594;BME280;9944;48.240;16.478;2023-02-01T13:40:39;99628.97;;;5.48;73.17
19594;BME280;9944;48.240;16.478;2023-02-01T13:44:46;99622.06;;;5.53;73.13
19594;BME280;9944;48.240;16.478;2023-02-01T13:48:53;99619.50;;;5.58;72.60
19594;BME280;9944;48.240;16.478;2023-02-01T13:53:00;99619.56;;;5.61;71.15
19594;BME280;9944;48.240;16.478;2023-02-01T13:57:13;99621.34;;;5.65;70.51
19594;BME280;9944;48.240;16.478;2023-02-01T14:01:34;99631.94;;;5.72;69.64
19594;BME280;9944;48.240;16.478;2023-02-01T14:06:05;99622.38;;;5.76;66.83
19594;BME280;9944;48.240;16.478;2023-02-01T14:10:46;99630.25;;;5.79;66.25
19594;BME280;9944;48.240;16.478;2023-02-01T14:14:51;99625.06;;;5.82;66.36
19594;BME280;9944;48.240;16.478;2023-02-01T14:19:00;99625.94;;;5.81;65.28
19594;BME280;9944;48.240;16.478;2023-02-01T14:23:12;99631.13;;;5.78;65.81
19594;BME280;9944;48.240;16.478;2023-02-01T14:27:19;99628.50;;;5.77;64.25
19594;BME280;9944;48.240;16.478;2023-02-01T14:31:50;99630.19;;;5.73;65.32
19594;BME280;9944;48.240;16.478;2023-02-01T14:36:04;99644.09;;;5.69;65.44
19594;BME280;9944;48.240;16.478;2023-02-01T14:40:16;99638.78;;;5.63;66.06
19594;BME280;9944;48.240;16.478;2023-02-01T14:44:25;99647.47;;;5.59;65.87
19594;BME280;9944;48.240;16.478;2023-02-01T14:48:47;99649.13;;;5.53;66.26
19594;BME280;9944;48.240;16.478;2023-02-01T14:52:58;99658.69;;;5.50;66.46
19594;BME280;9944;48.240;16.478;2023-02-01T14:57:04;99667.28;;;5.43;66.52
19594;BME280;9944;48.240;16.478;2023-02-01T15:01:16;99675.88;;;5.34;66.23
19594;BME280;9944;48.240;16.478;2023-02-01T15:05:30;99670.41;;;5.17;66.46
19594;BME280;9944;48.240;16.478;2023-02-01T15:09:36;99679.88;;;5.10;66.48
19594;BME280;9944;48.240;16.478;2023-02-01T15:13:47;99674.53;;;5.04;66.97
19594;BME280;9944;48.240;16.478;2023-02-01T15:17:56;99673.53;;;4.94;66.97
19594;BME280;9944;48.240;16.478;2023-02-01T15:22:01;99673.38;;;4.87;67.16
19594;BME280;9944;48.240;16.478;2023-02-01T15:26:05;99672.41;;;4.82;67.12
19594;BME280;9944;48.240;16.478;2023-02-01T15:30:16;99684.59;;;4.79;67.33
19594;BME280;9944;48.240;16.478;2023-02-01T15:34:20;99686.22;;;4.74;67.39
19594;BME280;9944;48.240;16.478;2023-02-01T15:38:36;99695.69;;;4.68;67.49
19594;BME280;9944;48.240;16.478;2023-02-01T15:42:50;99688.63;;;4.62;67.73
19594;BME280;9944;48.240;16.478;2023-02-01T15:46:54;99686.81;;;4.59;67.79
19594;BME280;9944;48.240;16.478;2023-02-01T15:50:58;99691.94;;;4.53;67.73
19594;BME280;9944;48.240;16.478;2023-02-01T15:55:05;99697.13;;;4.50;67.71
19594;BME280;9944;48.240;16.478;2023-02-01T15:59:15;99696.22;;;4.48;67.71
19594;BME280;9944;48.240;16.478;2023-02-01T16:03:32;99700.50;;;4.45;67.47
19594;BME280;9944;48.240;16.478;2023-02-01T16:07:36;99702.25;;;4.46;67.30
19594;BME280;9944;48.240;16.478;2023-02-01T16:11:48;99697.88;;;4.45;66.81
19594;BME280;9944;48.240;16.478;2023-02-01T16:15:52;99721.38;;;4.43;66.92
19594;BME280;9944;48.240;16.478;2023-02-01T16:19:55;99716.94;;;4.40;66.56
19594;BME280;9944;48.240;16.478;2023-02-01T16:23:58;99736.13;;;4.39;66.61
19594;BME280;9944;48.240;16.478;2023-02-01T16:28:07;99747.47;;;4.41;66.14
19594;BME280;9944;48.240;16.478;2023-02-01T16:32:16;99744.88;;;4.41;66.44
19594;BME280;9944;48.240;16.478;2023-02-01T16:36:20;99746.63;;;4.43;66.20
19594;BME280;9944;48.240;16.478;2023-02-01T16:40:24;99732.63;;;4.40;66.47
19594;BME280;9944;48.240;16.478;2023-02-01T16:44:28;99757.97;;;4.43;66.34
19594;BME280;9944;48.240;16.478;2023-02-01T16:48:34;99744.03;;;4.43;66.74
19594;BME280;9944;48.240;16.478;2023-02-01T16:52:37;99754.50;;;4.44;66.78
19594;BME280;9944;48.240;16.478;2023-02-01T16:56:43;99765.78;;;4.41;67.23
19594;BME280;9944;48.240;16.478;2023-02-01T17:00:48;99748.31;;;4.40;67.12
19594;BME280;9944;48.240;16.478;2023-02-01T17:04:52;99750.09;;;4.41;67.55
19594;BME280;9944;48.240;16.478;2023-02-01T17:08:57;99752.75;;;4.43;67.65
19594;BME280;9944;48.240;16.478;2023-02-01T17:13:01;99750.94;;;4.40;67.85
19594;BME280;9944;48.240;16.478;2023-02-01T17:17:05;99748.31;;;4.40;67.97
19594;BME280;9944;48.240;16.478;2023-02-01T17:21:10;99743.97;;;4.39;68.17
19594;BME280;9944;48.240;16.478;2023-02-01T17:25:14;99736.13;;;4.39;68.39
19594;BME280;9944;48.240;16.478;2023-02-01T17:29:19;99737.00;;;4.40;68.62
19594;BME280;9944;48.240;16.478;2023-02-01T17:33:26;99712.66;;;4.43;68.76
19594;BME280;9944;48.240;16.478;2023-02-01T17:37:37;99710.91;;;4.43;68.76
19594;BME280;9944;48.240;16.478;2023-02-01T17:41:40;99736.16;;;4.41;68.98
19594;BME280;9944;48.240;16.478;2023-02-01T17:45:46;99739.56;;;4.38;69.39
19594;BME280;9944;48.240;16.478;2023-02-01T17:49:54;99739.56;;;4.38;69.32
19594;BME280;9944;48.240;16.478;2023-02-01T17:53:58;99741.34;;;4.39;69.27
19594;BME280;9944;48.240;16.478;2023-02-01T17:58:01;99739.56;;;4.38;69.30
19594;BME280;9944;48.240;16.478;2023-02-01T18:02:15;99718.63;;;4.37;69.44
19594;BME280;9944;48.240;16.478;2023-02-01T18:06:22;99730.03;;;4.39;68.98
19594;BME280;9944;48.240;16.478;2023-02-01T18:10:27;99729.06;;;4.35;69.07
19594;BME280;9944;48.240;16.478;2023-02-01T18:14:30;99708.22;;;4.38;69.23
19594;BME280;9944;48.240;16.478;2023-02-01T18:18:34;99700.38;;;4.38;69.09
19594;BME280;9944;48.240;16.478;2023-02-01T18:22:41;99711.69;;;4.37;69.16
19594;BME280;9944;48.240;16.478;2023-02-01T18:26:44;99709.91;;;4.36;68.96
19594;BME280;9944;48.240;16.478;2023-02-01T18:30:48;99712.56;;;4.38;69.10
19594;BME280;9944;48.240;16.478;2023-02-01T18:34:52;99722.06;;;4.34;68.88
19594;BME280;9944;48.240;16.478;2023-02-01T18:38:57;99720.38;;;4.36;68.87
19594;BME280;9944;48.240;16.478;2023-02-01T18:43:01;99719.50;;;4.36;69.14
19594;BME280;9944;48.240;16.478;2023-02-01T18:47:04;99730.75;;;4.33;69.83
19594;BME280;9944;48.240;16.478;2023-02-01T18:51:09;99738.44;;;4.26;71.02
19594;BME280;9944;48.240;16.478;2023-02-01T18:55:13;99723.47;;;4.17;71.97
19594;BME280;9944;48.240;16.478;2023-02-01T18:59:16;99724.16;;;4.08;72.06
19594;BME280;9944;48.240;16.478;2023-02-01T19:03:20;99723.22;;;4.05;72.29
19594;BME280;9944;48.240;16.478;2023-02-01T19:07:26;99727.53;;;4.02;72.48
19594;BME280;9944;48.240;16.478;2023-02-01T19:11:31;99714.56;;;4.09;72.28
19594;BME280;9944;48.240;16.478;2023-02-01T19:15:34;99733.72;;;4.08;72.19
19594;BME280;9944;48.240;16.478;2023-02-01T19:19:41;99706.75;;;4.09;72.04
19594;BME280;9944;48.240;16.478;2023-02-01T19:23:45;99706.75;;;4.09;71.94
19594;BME280;9944;48.240;16.478;2023-02-01T19:27:50;99705.00;;;4.08;71.97
19594;BME280;9944;48.240;16.478;2023-02-01T19:31:53;99695.38;;;4.07;71.82
19594;BME280;9944;48.240;16.478;2023-02-01T19:35:58;99688.44;;;4.09;71.56
19594;BME280;9944;48.240;16.478;2023-02-01T19:40:01;99680.63;;;4.09;71.52
19594;BME280;9944;48.240;16.478;2023-02-01T19:44:06;99681.41;;;4.05;71.73
19594;BME280;9944;48.240;16.478;2023-02-01T19:48:09;99672.69;;;4.02;71.78
19594;BME280;9944;48.240;16.478;2023-02-01T19:52:13;99670.91;;;4.01;71.43
19594;BME280;9944;48.240;16.478;2023-02-01T19:56:16;99677.91;;;4.02;71.05
19594;BME280;9944;48.240;16.478;2023-02-01T20:00:21;99666.59;;;4.03;71.05
19594;BME280;9944;48.240;16.478;2023-02-01T20:04:25;99657.94;;;4.06;71.09
19594;BME280;9944;48.240;16.478;2023-02-01T20:08:28;99645.78;;;4.08;70.99
19594;BME280;9944;48.240;16.478;2023-02-01T20:12:31;99642.31;;;4.08;70.55
19594;BME280;9944;48.240;16.478;2023-02-01T20:16:36;99639.72;;;4.11;70.03
19594;BME280;9944;48.240;16.478;2023-02-01T20:20:40;99639.72;;;4.11;69.91
19594;BME280;9944;48.240;16.478;2023-02-01T20:24:43;99650.19;;;4.11;69.13
19594;BME280;9944;48.240;16.478;2023-02-01T20:28:46;99662.47;;;4.15;69.35
19594;BME280;9944;48.240;16.478;2023-02-01T20:32:51;99634.63;;;4.17;69.21
19594;BME280;9944;48.240;16.478;2023-02-01T20:36:54;99649.47;;;4.19;69.02
19594;BME280;9944;48.240;16.478;2023-02-01T20:41:04;99651.28;;;4.22;68.85
19594;BME280;9944;48.240;16.478;2023-02-01T20:45:08;99659.13;;;4.22;68.69
19594;BME280;9944;48.240;16.478;2023-02-01T20:49:12;99637.34;;;4.21;68.59
19594;BME280;9944;48.240;16.478;2023-02-01T20:53:16;99652.13;;;4.21;68.78
19594;BME280;9944;48.240;16.478;2023-02-01T20:57:27;99639.97;;;4.23;68.76
19594;BME280;9944;48.240;16.478;2023-02-01T21:01:30;99627.84;;;4.25;68.44
19594;BME280;9944;48.240;16.478;2023-02-01T21:05:35;99620.84;;;4.24;68.63
19594;BME280;9944;48.240;16.478;2023-02-01T21:09:41;99616.47;;;4.25;68.60
19594;BME280;9944;48.240;16.478;2023-02-01T21:13:45;99589.50;;;4.24;68.35
19594;BME280;9944;48.240;16.478;2023-02-01T21:17:52;99587.72;;;4.23;68.36
19594;BME280;9944;48.240;16.478;2023-02-01T21:21:57;99573.03;;;4.30;67.77
19594;BME280;9944;48.240;16.478;2023-02-01T21:26:00;99580.84;;;4.28;67.42
19594;BME280;9944;48.240;16.478;2023-02-01T21:30:06;99571.31;;;4.30;67.32
19594;BME280;9944;48.240;16.478;2023-02-01T21:34:09;99562.66;;;4.33;66.48
19594;BME280;9944;48.240;16.478;2023-02-01T21:38:14;99562.69;;;4.36;66.53
19594;BME280;9944;48.240;16.478;2023-02-01T21:42:18;99559.22;;;4.37;66.28
19594;BME280;9944;48.240;16.478;2023-02-01T21:46:22;99566.28;;;4.41;65.96
19594;BME280;9944;48.240;16.478;2023-02-01T21:50:25;99555.84;;;4.43;65.60
19594;BME280;9944;48.240;16.478;2023-02-01T21:54:30;99530.56;;;4.41;65.47
19594;BME280;9944;48.240;16.478;2023-02-01T21:58:33;99549.75;;;4.44;65.40
19594;BME280;9944;48.240;16.478;2023-02-01T22:02:36;99558.50;;;4.46;65.17
19594;BME280;9944;48.240;16.478;2023-02-01T22:06:41;99564.59;;;4.45;65.51
19594;BME280;9944;48.240;16.478;2023-02-01T22:10:47;99558.50;;;4.44;65.55
19594;BME280;9944;48.240;16.478;2023-02-01T22:14:51;99561.97;;;4.45;65.54